sensor_id;sensor_type;location;lat;lon;timestamp;pressure;altitude;pressure_sealevel;temperature;humidity
18504;BME280;9381;54.244;10.074;2023-02-28T00:03:37;102673.44;;;6.00;91.44
18504;BME280;9381;54.244;10.074;2023-02-28T00:08:38;102666.91;;;5.93;91.67
18504;BME280;9381;54.244;10.074;2023-02-28T00:13:41;102669.72;;;5.92;91.52
18504;BME280;9381;54.244;10.074;2023-02-28T00:18:42;102665.16;;;5.73;91.02
18504;BME280;9381;54.244;10.074;2023-02-28T00:23:43;102664.28;;;5.63;90.94
18504;BME280;9381;54.244;10.074;2023-02-28T00:28:43;102672.66;;;5.79;90.55
18504;BME280;9381;54.244;10.074;2023-02-28T00:33:44;102667.41;;;5.68;90.56
18504;BME280;9381;54.244;10.074;2023-02-28T00:38:44;102662.66;;;5.81;90.20
18504;BME280;9381;54.244;10.074;2023-02-28T00:43:45;102676.38;;;5.88;90.25
18504;BME280;9381;54.244;10.074;2023-02-28T00:48:45;102669.44;;;5.85;91.08
18504;BME280;9381;54.244;10.074;2023-02-28T00:53:45;102672.41;;;5.82;91.99
18504;BME280;9381;54.244;10.074;2023-02-28T00:58:45;102683.16;;;5.82;92.66
18504;BME280;9381;54.244;10.074;2023-02-28T01:03:46;102683.16;;;5.82;93.34
18504;BME280;9381;54.244;10.074;2023-02-28T01:08:46;102680.25;;;5.65;93.71
18504;BME280;9381;54.244;10.074;2023-02-28T01:13:47;102671.03;;;5.49;93.87
18504;BME280;9381;54.244;10.074;2023-02-28T01:18:48;102673.59;;;5.59;93.85
18504;BME280;9381;54.244;10.074;2023-02-28T01:23:49;102669.34;;;5.48;93.10
18504;BME280;9381;54.244;10.074;2023-02-28T01:28:51;102680.66;;;5.60;92.58
18504;BME280;9381;54.244;10.074;2023-02-28T01:33:52;102667.09;;;5.62;93.06
18504;BME280;9381;54.244;10.074;2023-02-28T01:38:52;102663.72;;;5.60;93.90
18504;BME280;9381;54.244;10.074;2023-02-28T01:43:57;102663.84;;;5.58;93.98
18504;BME280;9381;54.244;10.074;2023-02-28T01:49:14;102656.25;;;5.63;93.82
18504;BME280;9381;54.244;10.074;2023-02-28T01:54:29;102652.16;;;5.69;93.43
18504;BME280;9381;54.244;10.074;2023-02-28T01:59:44;102656.53;;;5.70;93.41
18504;BME280;9381;54.244;10.074;2023-02-28T02:04:52;102658.94;;;5.63;93.73
18504;BME280;9381;54.244;10.074;2023-02-28T02:10:02;102660.59;;;5.55;94.32
18504;BME280;9381;54.244;10.074;2023-02-28T02:15:05;102641.84;;;5.25;94.76
18504;BME280;9381;54.244;10.074;2023-02-28T02:25:26;102651.47;;;5.28;93.36
18504;BME280;9381;54.244;10.074;2023-02-28T02:35:52;102643.84;;;5.33;93.27
18504;BME280;9381;54.244;10.074;2023-02-28T02:41:10;102651.78;;;5.34;93.24
18504;BME280;9381;54.244;10.074;2023-02-28T02:46:19;102656.28;;;5.34;94.30
18504;BME280;9381;54.244;10.074;2023-02-28T02:51:22;102655.31;;;5.35;94.46
18504;BME280;9381;54.244;10.074;2023-02-28T02:56:27;102654.34;;;5.36;94.73
18504;BME280;9381;54.244;10.074;2023-02-28T03:01:30;102650.41;;;5.10;95.03
18504;BME280;9381;54.244;10.074;2023-02-28T03:06:31;102649.22;;;5.33;94.61
18504;BME280;9381;54.244;10.074;2023-02-28T03:11:32;102659.06;;;5.23;95.65
18504;BME280;9381;54.244;10.074;2023-02-28T03:17:00;102659.63;;;5.17;95.66
18504;BME280;9381;54.244;10.074;2023-02-28T03:32:57;102662.81;;;5.41;93.83
18504;BME280;9381;54.244;10.074;2023-02-28T03:38:07;102662.34;;;4.96;94.15
18504;BME280;9381;54.244;10.074;2023-02-28T03:43:13;102657.31;;;5.03;93.80
18504;BME280;9381;54.244;10.074;2023-02-28T03:48:22;102658.19;;;5.13;92.62
18504;BME280;9381;54.244;10.074;2023-02-28T03:53:34;102660.44;;;5.08;92.60
18504;BME280;9381;54.244;10.074;2023-02-28T03:58:53;102663.19;;;4.97;92.58
18504;BME280;9381;54.244;10.074;2023-02-28T04:03:55;102650.16;;;4.83;92.24
18504;BME280;9381;54.244;10.074;2023-02-28T04:08:56;102663.88;;;4.69;92.19
18504;BME280;9381;54.244;10.074;2023-02-28T04:13:56;102666.22;;;4.53;92.01
18504;BME280;9381;54.244;10.074;2023-02-28T04:18:56;102658.59;;;4.37;92.15
18504;BME280;9381;54.244;10.074;2023-02-28T04:24:03;102663.47;;;4.12;92.34
18504;BME280;9381;54.244;10.074;2023-02-28T04:29:05;102666.94;;;4.03;92.32
18504;BME280;9381;54.244;10.074;2023-02-28T04:34:05;102665.28;;;3.91;92.95
18504;BME280;9381;54.244;10.074;2023-02-28T04:39:06;102662.66;;;3.80;92.60
18504;BME280;9381;54.244;10.074;2023-02-28T04:44:06;102667.81;;;3.61;93.38
18504;BME280;9381;54.244;10.074;2023-02-28T04:49:08;102662.69;;;3.58;93.21
18504;BME280;9381;54.244;10.074;2023-02-28T04:54:10;102677.91;;;3.57;93.01
18504;BME280;9381;54.244;10.074;2023-02-28T04:59:11;102666.59;;;3.54;93.49
18504;BME280;9381;54.244;10.074;2023-02-28T05:04:11;102671.97;;;3.43;93.37
18504;BME280;9381;54.244;10.074;2023-02-28T05:09:11;102661.88;;;3.35;92.82
18504;BME280;9381;54.244;10.074;2023-02-28T05:14:13;102655.69;;;3.24;93.42
18504;BME280;9381;54.244;10.074;2023-02-28T05:19:14;102665.91;;;3.08;92.96
18504;BME280;9381;54.244;10.074;2023-02-28T05:24:14;102663.59;;;3.03;92.67
18504;BME280;9381;54.244;10.074;2023-02-28T05:29:14;102672.34;;;2.94;93.63
18504;BME280;9381;54.244;10.074;2023-02-28T05:34:15;102681.72;;;3.00;93.59
18504;BME280;9381;54.244;10.074;2023-02-28T05:39:16;102684.63;;;2.97;94.15
18504;BME280;9381;54.244;10.074;2023-02-28T05:44:16;102700.69;;;3.08;94.44
18504;BME280;9381;54.244;10.074;2023-02-28T05:49:16;102696.06;;;3.10;94.15
18504;BME280;9381;54.244;10.074;2023-02-28T05:54:16;102704.78;;;3.01;93.84
18504;BME280;9381;54.244;10.074;2023-02-28T05:59:17;102706.97;;;2.96;93.86
18504;BME280;9381;54.244;10.074;2023-02-28T06:04:19;102709.41;;;2.88;92.95
18504;BME280;9381;54.244;10.074;2023-02-28T06:09:19;102710.72;;;2.82;93.15
18504;BME280;9381;54.244;10.074;2023-02-28T06:14:20;102715.34;;;2.91;93.19
18504;BME280;9381;54.244;10.074;2023-02-28T06:19:21;102718.38;;;2.87;92.69
18504;BME280;9381;54.244;10.074;2023-02-28T06:24:23;102722.00;;;2.75;93.24
18504;BME280;9381;54.244;10.074;2023-02-28T06:29:24;102725.38;;;2.66;93.58
18504;BME280;9381;54.244;10.074;2023-02-28T06:34:25;102733.81;;;2.49;94.58
18504;BME280;9381;54.244;10.074;2023-02-28T06:39:25;102735.94;;;2.57;94.55
18504;BME280;9381;54.244;10.074;2023-02-28T06:44:25;102747.69;;;2.54;94.69
18504;BME280;9381;54.244;10.074;2023-02-28T06:49:26;102754.75;;;2.55;95.11
18504;BME280;9381;54.244;10.074;2023-02-28T06:54:27;102739.34;;;2.59;95.26
18504;BME280;9381;54.244;10.074;2023-02-28T06:59:27;102742.38;;;2.65;95.54
18504;BME280;9381;54.244;10.074;2023-02-28T07:04:28;102749.94;;;2.71;95.27
18504;BME280;9381;54.244;10.074;2023-02-28T07:09:28;102751.91;;;2.80;95.02
18504;BME280;9381;54.244;10.074;2023-02-28T07:14:29;102750.56;;;2.75;95.63
18504;BME280;9381;54.244;10.074;2023-02-28T07:19:30;102754.09;;;2.86;96.83
18504;BME280;9381;54.244;10.074;2023-02-28T07:24:30;102758.50;;;2.98;96.74
18504;BME280;9381;54.244;10.074;2023-02-28T07:29:30;102751.94;;;3.13;96.57
18504;BME280;9381;54.244;10.074;2023-02-28T07:34:31;102749.53;;;3.21;96.70
18504;BME280;9381;54.244;10.074;2023-02-28T07:39:31;102748.06;;;3.39;97.17
18504;BME280;9381;54.244;10.074;2023-02-28T07:44:31;102751.72;;;3.49;97.84
18504;BME280;9381;54.244;10.074;2023-02-28T07:49:31;102762.91;;;3.65;98.59
18504;BME280;9381;54.244;10.074;2023-02-28T07:54:33;102753.47;;;3.92;97.72
18504;BME280;9381;54.244;10.074;2023-02-28T07:59:33;102766.88;;;4.03;94.98
18504;BME280;9381;54.244;10.074;2023-02-28T08:04:33;102763.94;;;4.38;95.60
18504;BME280;9381;54.244;10.074;2023-02-28T08:09:34;102756.84;;;4.48;89.82
18504;BME280;9381;54.244;10.074;2023-02-28T08:14:35;102751.75;;;4.86;88.66
18504;BME280;9381;54.244;10.074;2023-02-28T08:19:36;102754.03;;;5.11;87.71
18504;BME280;9381;54.244;10.074;2023-02-28T08:24:36;102757.16;;;5.16;85.21
18504;BME280;9381;54.244;10.074;2023-02-28T08:29:37;102754.22;;;5.49;83.59
18504;BME280;9381;54.244;10.074;2023-02-28T08:34:39;102760.38;;;5.69;81.29
18504;BME280;9381;54.244;10.074;2023-02-28T08:39:40;102749.91;;;5.66;79.60
18504;BME280;9381;54.244;10.074;2023-02-28T08:44:40;102761.91;;;5.92;79.95
18504;BME280;9381;54.244;10.074;2023-02-28T08:49:41;102759.50;;;5.99;79.32
18504;BME280;9381;54.244;10.074;2023-02-28T08:54:41;102758.28;;;6.31;78.98
18504;BME280;9381;54.244;10.074;2023-02-28T08:59:42;102741.03;;;6.34;79.39
18504;BME280;9381;54.244;10.074;2023-02-28T09:04:42;102753.22;;;6.76;78.57
18504;BME280;9381;54.244;10.074;2023-02-28T09:09:45;102757.72;;;6.75;78.38
18504;BME280;9381;54.244;10.074;2023-02-28T09:14:54;102759.34;;;7.14;78.11
18504;BME280;9381;54.244;10.074;2023-02-28T09:19:55;102762.59;;;7.27;77.04
18504;BME280;9381;54.244;10.074;2023-02-28T09:24:56;102765.78;;;7.50;76.37
18504;BME280;9381;54.244;10.074;2023-02-28T09:29:57;102767.41;;;7.60;76.56
18504;BME280;9381;54.244;10.074;2023-02-28T09:34:57;102773.31;;;7.73;75.47
18504;BME280;9381;54.244;10.074;2023-02-28T09:39:57;102773.38;;;7.91;74.75
18504;BME280;9381;54.244;10.074;2023-02-28T09:45:00;102775.31;;;8.25;74.31
18504;BME280;9381;54.244;10.074;2023-02-28T09:55:45;102786.97;;;8.95;70.60
18504;BME280;9381;54.244;10.074;2023-02-28T10:00:56;102781.56;;;9.46;69.99
18504;BME280;9381;54.244;10.074;2023-02-28T10:06:19;102774.84;;;9.25;65.24
18504;BME280;9381;54.244;10.074;2023-02-28T10:11:20;102775.19;;;12.04;59.12
18504;BME280;9381;54.244;10.074;2023-02-28T10:16:31;102757.03;;;15.23;59.58
18504;BME280;9381;54.244;10.074;2023-02-28T10:21:42;102756.78;;;17.00;45.35
18504;BME280;9381;54.244;10.074;2023-02-28T10:26:45;102743.66;;;19.23;47.36
18504;BME280;9381;54.244;10.074;2023-02-28T10:31:47;102757.06;;;19.73;44.78
18504;BME280;9381;54.244;10.074;2023-02-28T10:36:49;102740.78;;;20.85;43.00
18504;BME280;9381;54.244;10.074;2023-02-28T10:41:50;102744.56;;;21.36;38.47
18504;BME280;9381;54.244;10.074;2023-02-28T10:46:50;102753.78;;;22.83;41.00
18504;BME280;9381;54.244;10.074;2023-02-28T10:51:56;102740.50;;;23.84;37.23
18504;BME280;9381;54.244;10.074;2023-02-28T11:02:30;102735.78;;;23.63;40.00
18504;BME280;9381;54.244;10.074;2023-02-28T11:07:31;102730.81;;;24.24;36.82
18504;BME280;9381;54.244;10.074;2023-02-28T11:12:37;102736.47;;;23.91;36.27
18504;BME280;9381;54.244;10.074;2023-02-28T11:17:38;102729.50;;;24.32;37.59
18504;BME280;9381;54.244;10.074;2023-02-28T11:22:43;102726.91;;;24.46;34.86
18504;BME280;9381;54.244;10.074;2023-02-28T11:27:49;102726.44;;;25.07;34.21
18504;BME280;9381;54.244;10.074;2023-02-28T11:32:50;102723.66;;;25.07;33.27
18504;BME280;9381;54.244;10.074;2023-02-28T11:37:51;102714.81;;;24.52;34.00
18504;BME280;9381;54.244;10.074;2023-02-28T11:42:57;102708.94;;;24.70;36.90
18504;BME280;9381;54.244;10.074;2023-02-28T11:53:22;102725.69;;;23.35;36.33
18504;BME280;9381;54.244;10.074;2023-02-28T11:58:36;102721.44;;;20.91;38.74
18504;BME280;9381;54.244;10.074;2023-02-28T12:04:50;102715.09;;;20.20;38.10
18504;BME280;9381;54.244;10.074;2023-02-28T12:30:41;102681.09;;;19.31;40.66
18504;BME280;9381;54.244;10.074;2023-02-28T12:36:05;102677.72;;;16.85;40.93
18504;BME280;9381;54.244;10.074;2023-02-28T12:41:45;102667.91;;;18.48;43.08
18504;BME280;9381;54.244;10.074;2023-02-28T12:46:51;102661.44;;;18.61;40.30
18504;BME280;9381;54.244;10.074;2023-02-28T12:51:55;102660.34;;;18.68;45.26
18504;BME280;9381;54.244;10.074;2023-02-28T13:13:20;102629.88;;;18.58;41.68
18504;BME280;9381;54.244;10.074;2023-02-28T13:18:33;102627.56;;;18.55;43.18
18504;BME280;9381;54.244;10.074;2023-02-28T13:28:59;102628.44;;;17.24;41.19
18504;BME280;9381;54.244;10.074;2023-02-28T13:34:14;102630.44;;;16.65;42.66
18504;BME280;9381;54.244;10.074;2023-02-28T13:50:32;102627.72;;;14.98;45.59
18504;BME280;9381;54.244;10.074;2023-02-28T14:06:23;102620.50;;;14.15;49.96
18504;BME280;9381;54.244;10.074;2023-02-28T14:11:31;102615.81;;;14.09;50.99
18504;BME280;9381;54.244;10.074;2023-02-28T14:22:15;102604.81;;;13.75;51.12
18504;BME280;9381;54.244;10.074;2023-02-28T14:27:35;102606.72;;;13.60;50.85
18504;BME280;9381;54.244;10.074;2023-02-28T14:32:50;102609.88;;;13.28;51.97
18504;BME280;9381;54.244;10.074;2023-02-28T14:37:52;102605.44;;;13.27;51.98
18504;BME280;9381;54.244;10.074;2023-02-28T14:43:02;102601.44;;;13.23;52.68
18504;BME280;9381;54.244;10.074;2023-02-28T14:48:04;102597.88;;;13.08;53.52
18504;BME280;9381;54.244;10.074;2023-02-28T14:53:17;102595.69;;;12.89;54.20
18504;BME280;9381;54.244;10.074;2023-02-28T14:58:25;102595.16;;;12.42;52.75
18504;BME280;9381;54.244;10.074;2023-02-28T15:03:34;102593.94;;;11.85;54.55
18504;BME280;9381;54.244;10.074;2023-02-28T15:08:35;102594.47;;;11.81;55.33
18504;BME280;9381;54.244;10.074;2023-02-28T15:13:41;102596.84;;;11.76;55.43
18504;BME280;9381;54.244;10.074;2023-02-28T15:18:53;102591.97;;;11.71;56.03
18504;BME280;9381;54.244;10.074;2023-02-28T15:24:04;102597.59;;;11.32;57.02
18504;BME280;9381;54.244;10.074;2023-02-28T15:29:12;102587.66;;;11.24;57.35
18504;BME280;9381;54.244;10.074;2023-02-28T15:34:42;102580.22;;;11.18;57.66
18504;BME280;9381;54.244;10.074;2023-02-28T15:39:43;102574.84;;;11.02;58.49
18504;BME280;9381;54.244;10.074;2023-02-28T15:44:45;102582.25;;;10.62;58.74
18504;BME280;9381;54.244;10.074;2023-02-28T15:49:49;102587.72;;;10.38;60.44
18504;BME280;9381;54.244;10.074;2023-02-28T15:54:52;102580.44;;;10.38;60.88
18504;BME280;9381;54.244;10.074;2023-02-28T15:59:57;102580.94;;;10.34;60.30
18504;BME280;9381;54.244;10.074;2023-02-28T16:10:01;102586.38;;;10.10;62.27
18504;BME280;9381;54.244;10.074;2023-02-28T16:15:06;102592.44;;;10.04;62.34
18504;BME280;9381;54.244;10.074;2023-02-28T16:20:25;102591.88;;;9.84;63.32
18504;BME280;9381;54.244;10.074;2023-02-28T16:25:39;102587.63;;;9.66;64.11
18504;BME280;9381;54.244;10.074;2023-02-28T16:30:40;102590.28;;;9.50;64.96
18504;BME280;9381;54.244;10.074;2023-02-28T16:35:40;102589.91;;;9.29;65.74
18504;BME280;9381;54.244;10.074;2023-02-28T16:40:41;102582.38;;;9.07;66.84
18504;BME280;9381;54.244;10.074;2023-02-28T16:45:41;102581.22;;;8.76;67.85
18504;BME280;9381;54.244;10.074;2023-02-28T16:50:42;102588.38;;;8.60;69.00
18504;BME280;9381;54.244;10.074;2023-02-28T16:55:44;102596.19;;;8.45;69.31
18504;BME280;9381;54.244;10.074;2023-02-28T17:00:45;102593.72;;;8.34;69.80
18504;BME280;9381;54.244;10.074;2023-02-28T17:05:45;102599.28;;;8.15;69.94
18504;BME280;9381;54.244;10.074;2023-02-28T17:10:45;102605.84;;;7.95;70.36
18504;BME280;9381;54.244;10.074;2023-02-28T17:15:46;102605.41;;;7.82;70.25
18504;BME280;9381;54.244;10.074;2023-02-28T17:20:47;102612.31;;;7.67;71.04
18504;BME280;9381;54.244;10.074;2023-02-28T17:25:48;102617.50;;;7.51;70.84
18504;BME280;9381;54.244;10.074;2023-02-28T17:30:53;102615.16;;;7.39;71.22
18504;BME280;9381;54.244;10.074;2023-02-28T17:35:53;102617.34;;;7.35;71.61
18504;BME280;9381;54.244;10.074;2023-02-28T17:40:54;102625.59;;;7.24;71.59
18504;BME280;9381;54.244;10.074;2023-02-28T17:45:57;102632.16;;;7.22;71.20
18504;BME280;9381;54.244;10.074;2023-02-28T17:50:58;102628.69;;;7.02;71.53
18504;BME280;9381;54.244;10.074;2023-02-28T17:55:58;102624.88;;;6.95;72.23
18504;BME280;9381;54.244;10.074;2023-02-28T18:00:59;102642.78;;;6.77;72.07
18504;BME280;9381;54.244;10.074;2023-02-28T18:06:00;102647.63;;;6.64;72.85
18504;BME280;9381;54.244;10.074;2023-02-28T18:11:01;102636.34;;;6.42;72.93
18504;BME280;9381;54.244;10.074;2023-02-28T18:16:01;102649.66;;;6.24;73.23
18504;BME280;9381;54.244;10.074;2023-02-28T18:21:04;102645.72;;;6.09;74.15
18504;BME280;9381;54.244;10.074;2023-02-28T18:26:08;102642.75;;;6.03;75.19
18504;BME280;9381;54.244;10.074;2023-02-28T18:31:09;102642.28;;;5.88;75.19
18504;BME280;9381;54.244;10.074;2023-02-28T18:36:11;102634.81;;;5.82;75.77
18504;BME280;9381;54.244;10.074;2023-02-28T18:41:11;102636.31;;;5.75;76.06
18504;BME280;9381;54.244;10.074;2023-02-28T18:46:16;102649.06;;;5.73;75.94
18504;BME280;9381;54.244;10.074;2023-02-28T18:51:22;102654.66;;;5.61;75.99
18504;BME280;9381;54.244;10.074;2023-02-28T18:56:24;102651.94;;;5.42;76.22
18504;BME280;9381;54.244;10.074;2023-02-28T19:01:26;102646.94;;;5.28;76.91
18504;BME280;9381;54.244;10.074;2023-02-28T19:06:30;102649.78;;;5.36;77.74
18504;BME280;9381;54.244;10.074;2023-02-28T19:11:31;102655.47;;;5.43;77.23
18504;BME280;9381;54.244;10.074;2023-02-28T19:16:31;102644.72;;;5.33;77.82
18504;BME280;9381;54.244;10.074;2023-02-28T19:21:32;102656.56;;;5.31;78.45
18504;BME280;9381;54.244;10.074;2023-02-28T19:26:35;102648.50;;;5.31;78.57
18504;BME280;9381;54.244;10.074;2023-02-28T19:31:36;102644.06;;;5.11;78.18
18504;BME280;9381;54.244;10.074;2023-02-28T19:36:37;102652.53;;;5.16;79.37
18504;BME280;9381;54.244;10.074;2023-02-28T19:41:37;102650.28;;;5.11;79.60
18504;BME280;9381;54.244;10.074;2023-02-28T19:46:38;102659.84;;;5.04;79.64
18504;BME280;9381;54.244;10.074;2023-02-28T19:51:39;102658.56;;;4.99;79.58
18504;BME280;9381;54.244;10.074;2023-02-28T19:56:40;102654.25;;;4.87;79.68
18504;BME280;9381;54.244;10.074;2023-02-28T20:01:40;102665.25;;;4.84;80.33
18504;BME280;9381;54.244;10.074;2023-02-28T20:06:41;102661.66;;;4.74;80.22
18504;BME280;9381;54.244;10.074;2023-02-28T20:11:42;102661.94;;;4.71;80.70
18504;BME280;9381;54.244;10.074;2023-02-28T20:16:44;102659.81;;;4.74;81.07
18504;BME280;9381;54.244;10.074;2023-02-28T20:21:44;102656.59;;;4.71;85.15
18504;BME280;9381;54.244;10.074;2023-02-28T20:26:45;102660.22;;;4.70;82.91
18504;BME280;9381;54.244;10.074;2023-02-28T20:31:45;102662.66;;;4.73;83.13
18504;BME280;9381;54.244;10.074;2023-02-28T20:36:46;102660.50;;;4.67;83.48
18504;BME280;9381;54.244;10.074;2023-02-28T20:41:46;102650.38;;;4.50;83.81
18504;BME280;9381;54.244;10.074;2023-02-28T20:46:46;102653.59;;;4.44;84.38
18504;BME280;9381;54.244;10.074;2023-02-28T20:51:47;102650.75;;;4.45;85.20
18504;BME280;9381;54.244;10.074;2023-02-28T20:56:47;102645.78;;;4.41;86.10
18504;BME280;9381;54.244;10.074;2023-02-28T21:01:47;102639.00;;;4.37;85.99
18504;BME280;9381;54.244;10.074;2023-02-28T21:06:48;102655.53;;;4.42;87.12
18504;BME280;9381;54.244;10.074;2023-02-28T21:11:52;102652.59;;;4.45;89.77
18504;BME280;9381;54.244;10.074;2023-02-28T21:16:53;102657.09;;;4.44;87.53
18504;BME280;9381;54.244;10.074;2023-02-28T21:21:54;102660.06;;;4.41;88.37
18504;BME280;9381;54.244;10.074;2023-02-28T21:26:54;102646.78;;;4.40;89.08
18504;BME280;9381;54.244;10.074;2023-02-28T21:31:56;102643.25;;;4.39;93.29
18504;BME280;9381;54.244;10.074;2023-02-28T21:36:58;102638.94;;;4.48;92.36
18504;BME280;9381;54.244;10.074;2023-02-28T21:41:58;102646.00;;;4.49;93.66
18504;BME280;9381;54.244;10.074;2023-02-28T21:47:02;102654.19;;;4.47;91.04
18504;BME280;9381;54.244;10.074;2023-02-28T21:52:03;102648.41;;;4.31;89.32
18504;BME280;9381;54.244;10.074;2023-02-28T21:57:03;102658.53;;;4.28;89.38
18504;BME280;9381;54.244;10.074;2023-02-28T22:02:05;102655.38;;;4.23;89.67
18504;BME280;9381;54.244;10.074;2023-02-28T22:07:05;102659.53;;;4.27;87.76
18504;BME280;9381;54.244;10.074;2023-02-28T22:12:05;102662.06;;;4.08;88.12
18504;BME280;9381;54.244;10.074;2023-02-28T22:17:07;102650.34;;;4.09;89.14
18504;BME280;9381;54.244;10.074;2023-02-28T22:22:07;102653.63;;;4.12;88.47
18504;BME280;9381;54.244;10.074;2023-02-28T22:27:08;102645.78;;;4.00;87.83
18504;BME280;9381;54.244;10.074;2023-02-28T22:32:08;102655.22;;;3.83;88.83
18504;BME280;9381;54.244;10.074;2023-02-28T22:37:11;102658.97;;;3.81;89.90
18504;BME280;9381;54.244;10.074;2023-02-28T22:42:11;102662.88;;;3.77;90.03
18504;BME280;9381;54.244;10.074;2023-02-28T22:47:12;102664.13;;;3.73;89.96
18504;BME280;9381;54.244;10.074;2023-02-28T22:52:12;102660.22;;;3.66;90.49
18504;BME280;9381;54.244;10.074;2023-02-28T22:57:12;102658.06;;;3.60;90.66
18504;BME280;9381;54.244;10.074;2023-02-28T23:02:13;102653.19;;;3.65;90.84
18504;BME280;9381;54.244;10.074;2023-02-28T23:07:13;102652.69;;;3.60;91.30
18504;BME280;9381;54.244;10.074;2023-02-28T23:12:14;102648.59;;;3.56;91.36
18504;BME280;9381;54.244;10.074;2023-02-28T23:17:14;102656.66;;;3.45;91.22
18504;BME280;9381;54.244;10.074;2023-02-28T23:22:14;102647.38;;;3.49;91.38
18504;BME280;9381;54.244;10.074;2023-02-28T23:27:15;102647.91;;;3.43;91.36
18504;BME280;9381;54.244;10.074;2023-02-28T23:32:15;102655.78;;;3.44;91.00
18504;BME280;9381;54.244;10.074;2023-02-28T23:37:15;102645.69;;;3.48;90.99
18504;BME280;9381;54.244;10.074;2023-02-28T23:42:16;102648.84;;;3.53;91.51
18504;BME280;9381;54.244;10.074;2023-02-28T23:47:16;102641.81;;;3.52;96.83
18504;BME280;9381;54.244;10.074;2023-02-28T23:52:17;102641.53;;;3.55;96.96
18504;BME280;9381;54.244;10.074;2023-02-28T23:57:17;102638.38;;;3.61;98.54
